Las Rusias, Texas
Current Conditions -  °F | °C
As of 5:16 PM on Friday 19 Dec 2014 (Local Time) from KHRL Reporting Station
Overcast Overcast  
Wind Chill: 61°   Ceiling: 1100
Heat Index: 61°   Visibility: 10mi
Dew Point: 57°   Wind: 15mph
Humidity: 88%   Direction: 350°N
Pressure: 30.01"   Gusts: NA
Location:  26.1784°N, 97.6678°W
Report Text: KHRL 192316Z 35013KT 10SM OVC011 16/14 A3001 RMK AO2
Loading
Personal Weather Stations






























Interactive Weather Map New forecast layout! Learn more

10-Day Weather Forecast

Advertisements
Track Severe Weather on mobile